createdAt,value
2022-07-29T00:00:06.064Z,101976.63
2022-07-29T00:03:09.725Z,101966.94
2022-07-29T00:06:15.138Z,101969.53
2022-07-29T00:09:18.796Z,101973.16
2022-07-29T00:12:25.293Z,101960.06
2022-07-29T00:15:30.160Z,101957.50
2022-07-29T00:18:34.252Z,101959.25
2022-07-29T00:21:39.242Z,101954.94
2022-07-29T00:24:43.070Z,101949.72
2022-07-29T00:27:47.247Z,101945.34
2022-07-29T00:30:50.908Z,101941.97
2022-07-29T00:33:54.828Z,101937.63
2022-07-29T00:36:59.272Z,101933.28
2022-07-29T00:40:03.203Z,101925.41
2022-07-29T00:43:07.019Z,101928.09
2022-07-29T00:46:10.774Z,101921.88
2022-07-29T00:49:15.213Z,101927.28
2022-07-29T00:52:20.483Z,101919.41
2022-07-29T00:55:25.227Z,101921.22
2022-07-29T00:58:29.767Z,101924.78
2022-07-29T01:01:33.493Z,101917.75
2022-07-29T01:04:37.458Z,101921.28
2022-07-29T01:07:43.681Z,101917.84
2022-07-29T01:10:49.351Z,101911.69
2022-07-29T01:13:54.826Z,101907.31
2022-07-29T01:17:16.192Z,101906.44
2022-07-29T01:20:33.503Z,101893.22
2022-07-29T01:24:09.674Z,101898.53
2022-07-29T01:27:40.675Z,101896.84
2022-07-29T01:30:52.843Z,101887.09
2022-07-29T01:34:05.022Z,101884.44
2022-07-29T01:37:17.952Z,101878.31
2022-07-29T01:40:26.466Z,101877.41
2022-07-29T01:43:40.239Z,101878.31
2022-07-29T01:46:54.692Z,101864.31
2022-07-29T01:50:02.385Z,101861.63
2022-07-29T01:53:10.941Z,101857.28
2022-07-29T01:56:18.395Z,101863.28
2022-07-29T01:59:24.362Z,101856.22
2022-07-29T02:02:34.270Z,101855.19
2022-07-29T02:05:41.169Z,101853.63
2022-07-29T02:08:47.872Z,101851.84
2022-07-29T02:11:56.291Z,101845.69
2022-07-29T02:15:05.787Z,101832.53
2022-07-29T02:18:17.616Z,101831.63
2022-07-29T02:21:27.454Z,101823.69
2022-07-29T02:24:32.993Z,101815.81
2022-07-29T02:27:39.948Z,101820.16
2022-07-29T02:30:46.547Z,101820.13
2022-07-29T02:33:53.476Z,101813.91
2022-07-29T02:36:58.809Z,101819.25
2022-07-29T02:40:03.664Z,101815.69
2022-07-29T02:43:10.003Z,101821.75
2022-07-29T02:46:28.870Z,101829.69
2022-07-29T02:49:40.794Z,101824.53
2022-07-29T02:52:48.827Z,101824.53
2022-07-29T02:55:59.367Z,101833.28
2022-07-29T02:59:08.199Z,101827.97
2022-07-29T03:02:15.566Z,101831.53
2022-07-29T03:05:23.612Z,101827.03
2022-07-29T03:08:29.520Z,101828.81
2022-07-29T03:11:41.442Z,101832.28
2022-07-29T03:14:55.279Z,101833.16
2022-07-29T03:18:00.903Z,101843.72
2022-07-29T03:21:06.540Z,101840.22
2022-07-29T03:24:10.929Z,101831.44
2022-07-29T03:27:14.991Z,101843.72
2022-07-29T03:30:21.811Z,101846.41
2022-07-29T03:33:26.133Z,101842.72
2022-07-29T03:36:31.081Z,101843.53
2022-07-29T03:39:42.895Z,101839.19
2022-07-29T03:42:48.953Z,101832.13
2022-07-29T03:45:57.200Z,101831.13
2022-07-29T03:49:05.291Z,101826.78
2022-07-29T03:52:11.155Z,101824.19
2022-07-29T03:55:15.764Z,101818.03
2022-07-29T03:58:22.052Z,101826.81
2022-07-29T04:01:26.904Z,101820.66
2022-07-29T04:04:30.758Z,101822.31
2022-07-29T04:07:35.798Z,101818.88
2022-07-29T04:10:40.877Z,101826.59
2022-07-29T04:13:44.520Z,101831.84
2022-07-29T04:16:48.302Z,101831.69
2022-07-29T04:19:51.881Z,101834.28
2022-07-29T04:22:56.987Z,101835.88
2022-07-29T04:26:01.416Z,101834.03
2022-07-29T04:29:05.101Z,101824.44
2022-07-29T04:32:09.179Z,101815.44
2022-07-29T04:35:12.840Z,101819.06
2022-07-29T04:38:17.913Z,101811.88
2022-07-29T04:41:21.565Z,101810.91
2022-07-29T04:44:28.423Z,101817.13
2022-07-29T04:47:32.540Z,101814.28
2022-07-29T04:50:36.243Z,101820.56
2022-07-29T04:53:41.324Z,101825.91
2022-07-29T04:56:44.969Z,101811.75
2022-07-29T04:59:49.677Z,101804.75
2022-07-29T05:02:53.363Z,101815.22
2022-07-29T05:05:58.124Z,101815.28
2022-07-29T05:09:03.125Z,101815.91
2022-07-29T05:12:07.956Z,101813.97
2022-07-29T05:15:12.514Z,101818.25
2022-07-29T05:18:16.505Z,101816.34
2022-07-29T05:21:20.090Z,101819.63
2022-07-29T05:24:25.471Z,101820.25
2022-07-29T05:27:29.052Z,101804.41
2022-07-29T05:30:32.761Z,101813.84
2022-07-29T05:33:37.173Z,101809.94
2022-07-29T05:36:40.895Z,101809.38
2022-07-29T05:39:48.918Z,101805.41
2022-07-29T05:42:54.496Z,101803.41
2022-07-29T05:45:58.934Z,101804.97
2022-07-29T05:49:03.946Z,101811.59
2022-07-29T05:52:07.682Z,101810.25
2022-07-29T05:55:13.211Z,101812.63
2022-07-29T05:58:16.961Z,101809.72
2022-07-29T06:01:21.248Z,101808.94
2022-07-29T06:04:25.022Z,101817.56
2022-07-29T06:07:28.684Z,101815.53
2022-07-29T06:10:33.737Z,101808.19
2022-07-29T06:13:37.469Z,101806.31
2022-07-29T06:16:41.102Z,101814.19
2022-07-29T06:19:45.042Z,101815.69
2022-07-29T06:22:48.600Z,101817.88
2022-07-29T06:25:53.944Z,101816.63
2022-07-29T06:28:57.546Z,101810.72
2022-07-29T06:32:01.215Z,101808.59
2022-07-29T06:35:36.177Z,101807.06
2022-07-29T06:38:30.668Z,101807.63
2022-07-29T06:41:38.890Z,101806.31
2022-07-29T06:44:42.920Z,101799.19
2022-07-29T06:47:46.645Z,101793.78
2022-07-29T06:50:50.439Z,101792.66
2022-07-29T06:54:00.463Z,101791.56
2022-07-29T06:57:08.212Z,101804.41
2022-07-29T07:00:13.731Z,101808.38
2022-07-29T07:03:17.999Z,101805.91
2022-07-29T07:06:21.668Z,101816.09
2022-07-29T07:09:25.360Z,101820.84
2022-07-29T07:12:45.404Z,101813.94
2022-07-29T07:15:49.884Z,101823.47
2022-07-29T07:18:53.577Z,101820.25
2022-07-29T07:21:57.339Z,101813.88
2022-07-29T07:25:01.109Z,101807.97
2022-07-29T07:28:06.628Z,101807.13
2022-07-29T07:31:10.551Z,101797.25
2022-07-29T07:34:15.681Z,101792.06
2022-07-29T07:37:20.433Z,101796.06
2022-07-29T07:40:24.665Z,101790.97
2022-07-29T07:43:29.719Z,101785.88
2022-07-29T07:46:33.371Z,101794.78
2022-07-29T07:49:37.055Z,101792.16
2022-07-29T07:52:51.078Z,101791.88
2022-07-29T07:56:11.772Z,101789.25
2022-07-29T07:59:18.211Z,101787.06
2022-07-29T08:02:22.046Z,101789.56
2022-07-29T08:05:26.140Z,101799.59
2022-07-29T08:08:29.833Z,101799.47
2022-07-29T08:11:34.111Z,101803.09
2022-07-29T08:14:42.744Z,101806.00
2022-07-29T08:17:46.996Z,101793.97
2022-07-29T08:20:50.689Z,101793.09
2022-07-29T08:24:14.786Z,101799.50
2022-07-29T08:27:41.756Z,101795.09
2022-07-29T08:30:43.980Z,101795.72
2022-07-29T08:33:47.744Z,101788.44
2022-07-29T08:36:51.490Z,101798.31
2022-07-29T08:39:55.072Z,101791.94
2022-07-29T08:42:59.064Z,101787.00
2022-07-29T08:46:04.311Z,101790.13
2022-07-29T08:49:08.085Z,101793.22
2022-07-29T08:52:14.156Z,101798.50
2022-07-29T08:55:21.228Z,101788.88
2022-07-29T08:58:26.596Z,101790.91
2022-07-29T09:01:36.779Z,101794.50
2022-07-29T09:04:47.039Z,101785.97
2022-07-29T09:07:51.143Z,101786.72
2022-07-29T09:10:56.708Z,101776.69
2022-07-29T09:14:00.482Z,101780.59
2022-07-29T09:17:06.836Z,101776.72
2022-07-29T09:20:13.975Z,101781.84
2022-07-29T09:23:23.091Z,101777.09
2022-07-29T09:26:31.797Z,101776.09
2022-07-29T09:29:36.422Z,101774.06
2022-07-29T09:33:02.235Z,101767.56
2022-07-29T09:36:08.546Z,101770.28
2022-07-29T09:39:12.770Z,101773.44
2022-07-29T09:42:30.279Z,101762.19
2022-07-29T09:45:38.986Z,101763.78
2022-07-29T09:48:44.029Z,101766.84
2022-07-29T09:51:47.849Z,101764.16
2022-07-29T09:54:51.769Z,101761.53
2022-07-29T09:57:55.480Z,101751.56
2022-07-29T10:00:59.475Z,101756.59
2022-07-29T10:04:05.509Z,101751.06
2022-07-29T10:07:09.243Z,101746.75
2022-07-29T10:10:13.384Z,101750.63
2022-07-29T10:13:17.378Z,101744.81
2022-07-29T10:16:21.114Z,101734.63
2022-07-29T10:19:27.106Z,101739.69
2022-07-29T10:22:51.930Z,101736.25
2022-07-29T10:25:55.170Z,101736.78
2022-07-29T10:28:58.816Z,101736.53
2022-07-29T10:32:36.640Z,101731.06
2022-07-29T10:36:12.534Z,101718.19
2022-07-29T10:39:44.438Z,101722.06
2022-07-29T10:42:56.253Z,101722.88
2022-07-29T10:46:03.042Z,101716.72
2022-07-29T10:49:16.168Z,101719.47
2022-07-29T10:52:26.639Z,101715.44
2022-07-29T10:55:37.761Z,101719.13
2022-07-29T10:58:42.083Z,101715.09
2022-07-29T11:02:27.977Z,101713.78
2022-07-29T11:05:22.243Z,101714.16
2022-07-29T11:08:28.431Z,101714.41
2022-07-29T11:11:37.732Z,101716.75
2022-07-29T11:15:02.718Z,101716.50
2022-07-29T11:21:51.675Z,101719.75
2022-07-29T11:25:42.913Z,101711.75
2022-07-29T11:29:04.792Z,101700.50
2022-07-29T11:32:15.867Z,101704.19
2022-07-29T11:35:38.260Z,101697.50
2022-07-29T11:38:43.991Z,101694.97
2022-07-29T11:41:49.308Z,101683.78
2022-07-29T11:44:57.877Z,101692.63
2022-07-29T11:48:29.335Z,101688.94
2022-07-29T11:51:32.698Z,101687.00
2022-07-29T11:54:58.291Z,101684.00
2022-07-29T11:58:05.597Z,101683.09
2022-07-29T12:01:09.333Z,101685.72
2022-07-29T12:04:12.951Z,101681.28
2022-07-29T12:07:17.807Z,101687.47
2022-07-29T12:10:29.824Z,101688.28
2022-07-29T12:13:41.786Z,101683.84
2022-07-29T12:16:45.495Z,101682.53
2022-07-29T12:19:50.960Z,101679.25
2022-07-29T12:22:55.870Z,101682.31
2022-07-29T12:26:01.475Z,101679.63
2022-07-29T12:29:11.335Z,101684.66
2022-07-29T12:32:19.778Z,101680.25
2022-07-29T12:35:24.221Z,101678.31
2022-07-29T12:38:28.704Z,101682.22
2022-07-29T12:41:33.310Z,101676.00
2022-07-29T12:44:52.682Z,101675.00
2022-07-29T12:47:56.402Z,101675.63
2022-07-29T12:51:04.257Z,101672.22
2022-07-29T12:54:12.276Z,101674.91
2022-07-29T12:57:20.289Z,101671.84
2022-07-29T13:00:26.939Z,101667.09
2022-07-29T13:03:35.726Z,101664.28
2022-07-29T13:06:45.695Z,101663.78
2022-07-29T13:09:49.506Z,101660.09
2022-07-29T13:13:09.193Z,101649.63
2022-07-29T13:16:14.243Z,101650.66
2022-07-29T13:19:17.838Z,101658.34
2022-07-29T13:22:24.408Z,101651.81
2022-07-29T13:25:31.047Z,101653.09
2022-07-29T13:28:35.254Z,101652.44
2022-07-29T13:31:40.255Z,101642.16
2022-07-29T13:34:43.868Z,101650.63
2022-07-29T13:37:48.236Z,101647.72
2022-07-29T13:40:51.954Z,101646.38
2022-07-29T13:43:55.547Z,101645.41
2022-07-29T13:47:00.996Z,101638.53
2022-07-29T13:50:07.426Z,101646.00
2022-07-29T13:53:11.106Z,101649.66
2022-07-29T13:56:21.728Z,101651.53
2022-07-29T13:59:25.316Z,101634.13
2022-07-29T14:02:31.369Z,101642.59
2022-07-29T14:05:34.991Z,101640.50
2022-07-29T14:08:38.692Z,101637.34
2022-07-29T14:11:42.339Z,101636.38
2022-07-29T14:14:47.327Z,101640.84
2022-07-29T14:17:52.520Z,101637.31
2022-07-29T14:20:56.231Z,101642.16
2022-07-29T14:23:59.839Z,101634.16
2022-07-29T14:27:03.915Z,101636.72
2022-07-29T14:30:09.791Z,101631.00
2022-07-29T14:33:15.252Z,101631.91
2022-07-29T14:36:18.876Z,101626.81
2022-07-29T14:39:22.483Z,101624.72
2022-07-29T14:42:26.107Z,101618.75
2022-07-29T14:45:30.370Z,101617.97
2022-07-29T14:48:36.100Z,101619.34
2022-07-29T14:51:39.727Z,101608.81
2022-07-29T14:54:43.980Z,101612.66
2022-07-29T14:57:47.557Z,101616.72
2022-07-29T15:00:51.380Z,101619.09
2022-07-29T15:03:59.703Z,101623.56
2022-07-29T15:07:03.564Z,101626.03
2022-07-29T15:10:08.395Z,101627.75
2022-07-29T15:13:12.036Z,101616.78
2022-07-29T15:16:15.774Z,101621.25
2022-07-29T15:19:20.871Z,101618.38
2022-07-29T15:22:24.576Z,101624.00
2022-07-29T15:25:28.616Z,101621.47
2022-07-29T15:28:32.403Z,101610.78
2022-07-29T15:31:36.231Z,101611.28
2022-07-29T15:34:41.398Z,101611.78
2022-07-29T15:37:48.840Z,101610.66
2022-07-29T15:40:53.183Z,101614.81
2022-07-29T15:43:56.843Z,101607.38
2022-07-29T15:47:07.321Z,101603.47
2022-07-29T15:50:15.934Z,101604.34
2022-07-29T15:53:19.607Z,101603.38
2022-07-29T15:56:23.496Z,101606.28
2022-07-29T15:59:28.582Z,101601.56
2022-07-29T16:02:32.207Z,101600.09
2022-07-29T16:05:37.657Z,101586.81
2022-07-29T16:08:41.342Z,101596.19
2022-07-29T16:11:46.452Z,101585.69
2022-07-29T16:14:52.082Z,101583.38
2022-07-29T16:17:55.829Z,101586.81
2022-07-29T16:21:00.812Z,101587.03
2022-07-29T16:24:05.871Z,101590.53
2022-07-29T16:27:09.495Z,101588.69
2022-07-29T16:30:13.876Z,101582.25
2022-07-29T16:33:17.823Z,101591.75
2022-07-29T16:36:23.747Z,101588.28
2022-07-29T16:39:36.796Z,101585.47
2022-07-29T16:42:48.175Z,101581.56
2022-07-29T16:45:52.012Z,101582.16
2022-07-29T16:48:56.393Z,101583.69
2022-07-29T16:52:01.499Z,101580.66
2022-07-29T16:55:06.499Z,101587.44
2022-07-29T16:58:10.938Z,101583.41
2022-07-29T17:01:14.913Z,101587.28
2022-07-29T17:04:18.648Z,101584.09
2022-07-29T17:07:23.803Z,101578.75
2022-07-29T17:10:28.474Z,101591.91
2022-07-29T17:13:32.212Z,101592.63
2022-07-29T17:16:36.172Z,101586.94
2022-07-29T17:19:40.094Z,101596.94
2022-07-29T17:22:45.320Z,101604.97
2022-07-29T17:25:49.234Z,101606.28
2022-07-29T17:28:53.633Z,101603.47
2022-07-29T17:31:57.815Z,101601.16
2022-07-29T17:35:01.445Z,101602.28
2022-07-29T17:38:06.533Z,101604.41
2022-07-29T17:41:10.219Z,101604.41
2022-07-29T17:44:14.203Z,101605.38
2022-07-29T17:47:17.836Z,101608.53
2022-07-29T17:50:21.498Z,101612.03
2022-07-29T17:53:26.559Z,101615.56
2022-07-29T17:56:30.220Z,101608.25
2022-07-29T17:59:33.872Z,101594.16
2022-07-29T18:02:38.082Z,101596.94
2022-07-29T18:05:42.084Z,101597.78
2022-07-29T18:08:47.636Z,101598.63
2022-07-29T18:11:51.722Z,101606.34
2022-07-29T18:14:55.391Z,101597.31
2022-07-29T18:17:58.987Z,101595.84
2022-07-29T18:21:02.911Z,101595.38
2022-07-29T18:24:09.523Z,101597.22
2022-07-29T18:27:13.358Z,101605.00
2022-07-29T18:30:17.296Z,101611.28
2022-07-29T18:33:22.397Z,101615.00
2022-07-29T18:36:26.338Z,101609.94
2022-07-29T18:39:31.350Z,101609.19
2022-07-29T18:42:35.118Z,101619.63
2022-07-29T18:45:39.606Z,101616.22
2022-07-29T18:48:43.356Z,101627.72
2022-07-29T18:51:47.025Z,101624.38
2022-07-29T18:54:52.302Z,101626.88
2022-07-29T18:57:57.441Z,101628.56
2022-07-29T19:01:02.430Z,101636.88
2022-07-29T19:04:06.335Z,101651.03
2022-07-29T19:07:10.114Z,101658.19
2022-07-29T19:10:15.754Z,101659.44
2022-07-29T19:13:19.365Z,101667.03
2022-07-29T19:16:22.999Z,101665.50
2022-07-29T19:19:26.635Z,101663.78
2022-07-29T19:22:30.303Z,101675.50
2022-07-29T19:25:35.877Z,101671.41
2022-07-29T19:28:39.611Z,101682.22
2022-07-29T19:31:44.348Z,101678.81
2022-07-29T19:35:08.140Z,101682.13
2022-07-29T19:38:12.009Z,101685.81
2022-07-29T19:41:17.232Z,101687.13
2022-07-29T19:44:21.433Z,101684.94
2022-07-29T19:47:25.205Z,101701.09
2022-07-29T19:50:29.024Z,101693.75
2022-07-29T19:53:33.366Z,101689.63
2022-07-29T19:56:40.760Z,101692.38
2022-07-29T19:59:46.117Z,101691.25
2022-07-29T20:02:49.974Z,101698.72
2022-07-29T20:05:53.632Z,101693.47
2022-07-29T20:08:58.869Z,101700.84
2022-07-29T20:12:04.864Z,101700.44
2022-07-29T20:15:10.585Z,101698.50
2022-07-29T20:18:20.271Z,101705.88
2022-07-29T20:21:23.869Z,101707.00
2022-07-29T20:24:27.588Z,101699.28
2022-07-29T20:27:32.644Z,101700.13
2022-07-29T20:30:38.422Z,101698.06
2022-07-29T20:33:42.489Z,101698.00
2022-07-29T20:36:46.149Z,101692.56
2022-07-29T20:39:49.767Z,101691.47
2022-07-29T20:42:55.153Z,101702.75
2022-07-29T20:46:00.185Z,101694.97
2022-07-29T20:49:03.919Z,101698.41
2022-07-29T20:52:08.610Z,101709.72
2022-07-29T20:55:12.691Z,101712.56
2022-07-29T20:58:19.785Z,101715.03
2022-07-29T21:01:23.630Z,101705.28
2022-07-29T21:04:32.669Z,101715.03
2022-07-29T21:07:36.474Z,101717.59
2022-07-29T21:10:40.314Z,101716.75
2022-07-29T21:13:45.598Z,101714.28
2022-07-29T21:16:50.303Z,101715.97
2022-07-29T21:19:55.398Z,101718.81
2022-07-29T21:22:59.408Z,101717.28
2022-07-29T21:26:06.237Z,101720.03
2022-07-29T21:29:13.184Z,101722.78
2022-07-29T21:32:27.582Z,101717.63
2022-07-29T21:36:06.623Z,101720.56
2022-07-29T21:38:57.875Z,101711.88
2022-07-29T21:42:02.181Z,101707.34
2022-07-29T21:45:08.548Z,101703.91
2022-07-29T21:48:15.734Z,101705.94
2022-07-29T21:51:19.378Z,101710.16
2022-07-29T21:54:23.099Z,101713.16
2022-07-29T21:57:27.696Z,101715.22
2022-07-29T22:00:34.106Z,101711.97
2022-07-29T22:03:37.683Z,101715.38
2022-07-29T22:06:41.535Z,101702.44
2022-07-29T22:09:45.188Z,101703.22
2022-07-29T22:12:51.251Z,101703.28
2022-07-29T22:15:56.251Z,101696.44
2022-07-29T22:18:59.846Z,101696.34
2022-07-29T22:22:03.515Z,101693.84
2022-07-29T22:25:09.196Z,101700.28
2022-07-29T22:28:12.767Z,101698.72
2022-07-29T22:31:17.865Z,101697.00
2022-07-29T22:34:21.627Z,101691.28
2022-07-29T22:37:25.328Z,101689.72
2022-07-29T22:40:30.762Z,101691.50
2022-07-29T22:43:36.459Z,101694.16
2022-07-29T22:46:41.729Z,101690.66
2022-07-29T22:49:45.526Z,101682.78
2022-07-29T22:52:49.164Z,101677.53
2022-07-29T22:55:52.794Z,101678.44
2022-07-29T22:58:56.499Z,101676.81
2022-07-29T23:02:01.621Z,101684.09
2022-07-29T23:05:05.763Z,101677.25
2022-07-29T23:08:10.395Z,101685.22
2022-07-29T23:11:14.231Z,101681.16
2022-07-29T23:14:17.931Z,101677.88
2022-07-29T23:17:23.055Z,101684.38
2022-07-29T23:20:27.020Z,101682.66
2022-07-29T23:23:32.338Z,101679.25
2022-07-29T23:26:36.936Z,101684.56
2022-07-29T23:29:40.562Z,101682.91
2022-07-29T23:32:45.611Z,101680.34
2022-07-29T23:35:49.308Z,101676.69
2022-07-29T23:38:54.963Z,101665.16
2022-07-29T23:41:58.544Z,101672.28
2022-07-29T23:45:02.318Z,101680.34
2022-07-29T23:48:08.090Z,101678.53
2022-07-29T23:51:11.715Z,101667.91
2022-07-29T23:54:15.337Z,101668.09
2022-07-29T23:57:19.254Z,101661.91
